Time;durP1;ratioP1;P1;durP2;ratioP2;P2;SDS_P1;SDS_P2;PMS_P1;PMS_P2;Temp;Humidity;BMP_temperature;BMP_pressure;BME280_temperature;BME280_humidity;BME280_pressure;Samples;Min_cycle;Max_cycle;Signal;HPM_P1;HPM_P2
2022/08/07 00:01:10;;;;;;;6.68;3.92;;;;;;;22.87;48.41;93712.88;5127279;28;20252;-75
2022/08/07 00:03:36;;;;;;;7.13;4.22;;;;;;;22.87;48.39;93718.31;5127059;28;20024;-75
2022/08/07 00:06:02;;;;;;;7.68;3.92;;;;;;;22.87;47.20;93712.09;5126968;27;20015;-75
2022/08/07 00:08:27;;;;;;;8.20;3.88;;;;;;;22.93;46.18;93714.00;5127118;28;20030;-75
2022/08/07 00:10:53;;;;;;;9.32;3.95;;;;;;;22.93;47.58;93719.44;5127037;28;20015;-75
2022/08/07 00:13:20;;;;;;;6.57;3.90;;;;;;;22.94;47.92;93723.72;5126873;28;20086;-75
2022/08/07 00:15:46;;;;;;;10.15;4.20;;;;;;;22.94;48.10;93722.94;5127007;28;20033;-75
2022/08/07 00:18:17;;;;;;;7.72;4.18;;;;;;;22.93;48.75;93721.41;5126827;28;20032;-75
2022/08/07 00:20:42;;;;;;;8.25;4.45;;;;;;;22.92;48.54;93722.56;5127074;28;20091;-75
2022/08/07 00:23:08;;;;;;;13.48;4.05;;;;;;;22.92;48.48;93722.56;5126747;28;20237;-76
2022/08/07 00:25:34;;;;;;;8.63;4.63;;;;;;;22.93;48.39;93727.59;5126945;28;20333;-75
2022/08/07 00:27:59;;;;;;;7.70;5.18;;;;;;;22.90;48.68;93722.97;5126487;28;20015;-75
2022/08/07 00:30:25;;;;;;;7.72;3.92;;;;;;;22.84;49.23;93722.59;5126707;28;20260;-75
2022/08/07 00:32:51;;;;;;;11.43;4.00;;;;;;;22.76;48.60;93720.31;5125217;28;20020;-75
2022/08/07 00:35:17;;;;;;;6.80;4.00;;;;;;;22.69;48.29;93725.75;5126759;28;20045;-75
2022/08/07 00:37:43;;;;;;;7.32;4.50;;;;;;;22.63;48.51;93728.88;5126634;28;20019;-75
2022/08/07 00:40:09;;;;;;;6.53;4.45;;;;;;;22.62;48.90;93727.31;5126632;28;20221;-75
2022/08/07 00:42:35;;;;;;;5.55;3.88;;;;;;;22.63;49.61;93728.88;5126454;28;20019;-75
2022/08/07 00:45:01;;;;;;;6.65;3.80;;;;;;;22.62;49.79;93726.56;5126322;28;20099;-75
2022/08/07 00:47:26;;;;;;;10.50;4.07;;;;;;;22.59;49.22;93717.25;5126483;28;20016;-75
2022/08/07 00:49:52;;;;;;;5.32;3.85;;;;;;;22.58;48.75;93725.78;5126208;28;20027;-75
2022/08/07 00:52:17;;;;;;;10.23;4.00;;;;;;;22.57;48.96;93719.59;5126205;28;20023;-75
2022/08/07 00:54:43;;;;;;;9.63;4.13;;;;;;;22.59;48.98;93725.41;5126411;28;20019;-75
2022/08/07 00:57:09;;;;;;;6.53;3.83;;;;;;;22.57;50.01;93730.47;5126107;28;20020;-75
2022/08/07 00:59:36;;;;;;;5.97;4.13;;;;;;;22.51;50.17;93729.31;5126035;28;20030;-75
2022/08/07 01:02:07;;;;;;;8.52;4.55;;;;;;;22.50;50.28;93729.69;5126072;28;20280;-75
2022/08/07 01:04:32;;;;;;;7.20;4.03;;;;;;;22.48;50.45;93721.94;5125959;28;20028;-75
2022/08/07 01:06:58;;;;;;;6.78;4.72;;;;;;;22.44;50.60;93716.50;5125912;28;20034;-75
2022/08/07 01:09:24;;;;;;;7.05;4.60;;;;;;;22.43;50.50;93727.78;5124564;27;20019;-75
2022/08/07 01:11:50;;;;;;;10.45;4.35;;;;;;;22.36;50.33;93709.53;5125618;27;20337;-75
2022/08/07 01:14:26;;;;;;;5.65;4.03;;;;;;;22.35;50.29;93718.09;5126001;28;20031;-75
2022/08/07 01:16:52;;;;;;;6.80;4.57;;;;;;;22.34;50.70;93713.81;5125633;28;20039;-75
2022/08/07 01:19:20;;;;;;;6.32;3.85;;;;;;;22.36;50.74;93725.06;5125817;28;20046;-75
2022/08/07 01:21:47;;;;;;;7.47;4.00;;;;;;;22.36;51.18;93725.06;5125644;28;20015;-75
2022/08/07 01:24:15;;;;;;;5.95;4.03;;;;;;;22.29;51.66;93720.44;5125686;28;20291;-75
2022/08/07 01:26:40;;;;;;;9.57;4.40;;;;;;;22.29;51.97;93725.06;5125628;28;20074;-75
2022/08/07 01:29:06;;;;;;;7.70;4.30;;;;;;;22.24;51.99;93729.72;5125437;28;20047;-75
2022/08/07 01:31:31;;;;;;;5.75;3.92;;;;;;;22.17;52.35;93735.16;5125227;28;20030;-75
2022/08/07 01:33:58;;;;;;;7.78;4.20;;;;;;;22.14;52.20;93738.63;5125582;27;20416;-75
2022/08/07 01:36:28;;;;;;;6.35;4.40;;;;;;;22.11;52.32;93731.28;5125332;27;20064;-75
2022/08/07 01:38:55;;;;;;;19.02;4.47;;;;;;;22.06;52.09;93741.75;5125323;28;20024;-75
2022/08/07 01:41:21;;;;;;;12.18;4.35;;;;;;;22.02;52.71;93742.53;5125112;28;20104;-75
2022/08/07 01:43:48;;;;;;;7.13;3.90;;;;;;;21.97;52.99;93742.91;5125436;28;20019;-75
2022/08/07 01:46:15;;;;;;;8.52;4.70;;;;;;;21.97;52.47;93750.28;5125381;28;20315;-75
2022/08/07 01:48:42;;;;;;;9.15;5.15;;;;;;;21.91;52.23;93759.97;5125278;28;20031;-75
2022/08/07 01:51:11;;;;;;;6.95;4.20;;;;;;;21.85;52.34;93762.31;5124961;28;20076;-75
2022/08/07 01:53:41;;;;;;;8.98;4.88;;;;;;;21.81;51.85;93765.00;5124848;28;20053;-75
2022/08/07 01:56:13;;;;;;;6.85;4.72;;;;;;;21.75;52.45;93777.41;5125158;28;20035;-75
2022/08/07 01:58:44;;;;;;;8.02;5.25;;;;;;;21.80;52.60;93776.25;5124898;28;20030;-75
2022/08/07 02:01:14;;;;;;;7.95;5.20;;;;;;;21.82;52.83;93804.53;5124858;28;20035;-75
2022/08/07 02:03:46;;;;;;;6.30;4.70;;;;;;;21.78;53.10;93822.75;5124832;28;20027;-75
2022/08/07 02:06:15;;;;;;;8.40;5.23;;;;;;;21.76;53.36;93863.06;5124780;28;20268;-75
2022/08/07 02:08:42;;;;;;;14.15;5.25;;;;;;;21.78;53.43;93859.97;5123461;28;20310;-75
2022/08/07 02:11:09;;;;;;;7.40;5.43;;;;;;;21.77;53.41;93856.47;5124645;28;20027;-75
2022/08/07 02:13:37;;;;;;;12.38;5.70;;;;;;;21.79;53.41;93859.56;5123502;28;20023;-75
2022/08/07 02:16:05;;;;;;;7.90;5.03;;;;;;;21.73;53.80;93858.38;5124696;28;20020;-76
2022/08/07 02:18:34;;;;;;;8.70;5.95;;;;;;;21.63;54.30;93862.63;5124270;28;20118;-76
2022/08/07 02:21:02;;;;;;;11.45;5.97;;;;;;;21.62;54.04;93860.31;5124328;28;20021;-75
2022/08/07 02:23:32;;;;;;;10.68;6.25;;;;;;;21.62;54.69;93868.44;5124549;28;20022;-75
2022/08/07 02:25:59;;;;;;;12.48;5.57;;;;;;;21.62;55.48;93863.78;5124301;28;20015;-76
2022/08/07 02:28:27;;;;;;;12.75;5.15;;;;;;;21.66;55.61;93863.00;5124412;28;20023;-75
2022/08/07 02:30:55;;;;;;;7.72;5.57;;;;;;;21.72;54.99;93856.06;5124241;28;20020;-75
2022/08/07 02:33:23;;;;;;;17.45;5.75;;;;;;;21.75;57.14;93850.63;5123164;28;20027;-76
2022/08/07 02:35:51;;;;;;;12.15;5.25;;;;;;;21.83;57.77;93838.63;5124357;27;20090;-76
2022/08/07 02:38:19;;;;;;;7.35;5.15;;;;;;;21.82;58.48;93804.53;5124287;28;20051;-76
2022/08/07 02:40:45;;;;;;;9.80;5.28;;;;;;;21.71;59.77;93784.75;5124106;28;20026;-75
2022/08/07 02:43:11;;;;;;;7.78;5.28;;;;;;;21.69;59.61;93792.50;5124070;28;20020;-75
2022/08/07 02:45:39;;;;;;;9.02;5.82;;;;;;;21.72;61.69;93788.25;5123914;28;20019;-75
2022/08/07 02:48:05;;;;;;;6.95;5.35;;;;;;;21.67;61.51;93778.56;5123880;28;20320;-75
2022/08/07 02:50:33;;;;;;;8.63;5.68;;;;;;;21.61;62.76;93771.97;5123871;28;20103;-75
2022/08/07 02:53:08;;;;;;;9.52;5.47;;;;;;;21.62;63.77;93766.16;5123855;28;20337;-75
2022/08/07 02:55:38;;;;;;;8.60;5.20;;;;;;;21.55;63.83;93759.94;5123814;28;20015;-75
2022/08/07 02:58:08;;;;;;;8.15;4.90;;;;;;;21.47;64.14;93759.13;5123721;28;20022;-75
2022/08/07 03:00:35;;;;;;;7.82;5.32;;;;;;;21.42;64.84;93754.88;5123878;28;20036;-77
2022/08/07 03:03:04;;;;;;;8.13;5.30;;;;;;;21.41;65.68;93758.75;5123745;28;20245;-76
2022/08/07 03:05:31;;;;;;;6.78;5.38;;;;;;;21.42;65.75;93754.88;5123554;28;20020;-76
2022/08/07 03:07:57;;;;;;;13.68;6.63;;;;;;;21.44;65.93;93754.50;5123600;28;20099;-76
2022/08/07 03:10:23;;;;;;;7.80;5.60;;;;;;;21.47;66.71;93744.81;5123563;28;20029;-76
2022/08/07 03:12:49;;;;;;;9.68;5.65;;;;;;;21.52;67.71;93744.44;5123514;28;20020;-76
2022/08/07 03:15:16;;;;;;;8.43;5.32;;;;;;;21.52;67.31;93728.94;5123426;28;20086;-76
2022/08/07 03:17:42;;;;;;;8.43;6.05;;;;;;;21.51;67.11;93726.63;5123460;28;20379;-76
2022/08/07 03:20:09;;;;;;;10.32;5.15;;;;;;;21.55;66.75;93738.25;5123469;28;20019;-76
2022/08/07 03:22:39;;;;;;;7.90;5.82;;;;;;;21.56;66.54;93737.09;5123334;28;20043;-76
2022/08/07 03:25:05;;;;;;;7.55;4.97;;;;;;;21.55;66.03;93733.59;5123518;28;20066;-76
2022/08/07 03:27:31;;;;;;;7.18;5.38;;;;;;;21.54;65.67;93742.13;5123330;28;20400;-75
2022/08/07 03:29:57;;;;;;;6.45;4.53;;;;;;;21.56;65.75;93735.16;5123317;28;20030;-76
2022/08/07 03:32:32;;;;;;;5.68;4.20;;;;;;;21.55;64.30;93740.94;5122593;28;20035;-76
2022/08/07 03:35:02;;;;;;;6.40;5.20;;;;;;;21.58;64.73;93742.91;5122252;28;20055;-76
2022/08/07 03:37:31;;;;;;;6.82;4.80;;;;;;;21.63;64.58;93737.84;5123307;28;20019;-76
2022/08/07 03:39:57;;;;;;;7.75;4.72;;;;;;;21.68;65.13;93736.72;5123019;28;20043;-75
2022/08/07 03:42:24;;;;;;;7.55;5.22;;;;;;;21.62;64.46;93746.41;5123231;28;20273;-75
2022/08/07 03:44:50;;;;;;;9.77;5.47;;;;;;;21.58;66.87;93759.19;5123445;28;20100;-76
2022/08/07 03:47:15;;;;;;;7.45;5.32;;;;;;;21.56;67.51;93748.72;5123245;28;20020;-76
2022/08/07 03:49:44;;;;;;;10.30;5.47;;;;;;;21.60;68.88;93762.28;5122966;28;20023;-76
2022/08/07 03:52:11;;;;;;;12.50;7.07;;;;;;;21.56;68.24;93767.69;5123140;28;20023;-76
2022/08/07 03:54:36;;;;;;;11.95;6.03;;;;;;;21.50;67.79;93771.19;5123138;28;20047;-76
2022/08/07 03:57:04;;;;;;;10.38;6.00;;;;;;;21.41;68.26;93785.84;5123201;28;20026;-76
2022/08/07 03:59:31;;;;;;;10.45;5.90;;;;;;;21.43;68.87;93788.19;5123043;28;20057;-75
2022/08/07 04:01:57;;;;;;;9.25;6.30;;;;;;;21.43;69.69;93794.41;5123138;28;20015;-76
2022/08/07 04:04:23;;;;;;;11.25;5.82;;;;;;;21.36;69.63;93804.41;5123083;28;20022;-76
2022/08/07 04:06:49;;;;;;;9.07;6.32;;;;;;;21.31;70.65;93799.34;5123035;28;20019;-76
2022/08/07 04:09:15;;;;;;;7.10;5.68;;;;;;;21.25;70.37;93796.25;5122974;28;20060;-76
2022/08/07 04:11:43;;;;;;;10.15;5.85;;;;;;;21.16;70.26;93793.13;5122828;28;20027;-76
2022/08/07 04:14:08;;;;;;;9.57;6.65;;;;;;;21.10;70.38;93790.00;5123101;28;20023;-76
2022/08/07 04:16:35;;;;;;;9.70;6.60;;;;;;;21.09;69.04;93790.41;5122818;28;20065;-76
2022/08/07 04:19:01;;;;;;;9.40;6.85;;;;;;;21.14;70.36;93787.31;5122826;28;20272;-76
2022/08/07 04:21:27;;;;;;;8.10;5.88;;;;;;;21.20;70.52;93788.47;5121592;28;20102;-76
2022/08/07 04:23:53;;;;;;;8.07;5.80;;;;;;;21.24;69.30;93792.75;5122981;28;20072;-76
2022/08/07 04:26:18;;;;;;;8.80;6.13;;;;;;;21.30;68.40;93797.81;5123119;28;20047;-76
2022/08/07 04:28:44;;;;;;;7.25;5.80;;;;;;;21.38;69.03;93800.16;5122735;28;20045;-76
2022/08/07 04:31:10;;;;;;;9.38;5.97;;;;;;;21.54;69.17;93797.13;5122786;28;20031;-76
2022/08/07 04:33:36;;;;;;;8.50;5.45;;;;;;;21.68;69.99;93796.38;5122448;28;20024;-76
2022/08/07 04:36:03;;;;;;;8.30;6.00;;;;;;;21.80;69.67;93795.25;5122747;28;20024;-76
2022/08/07 04:38:29;;;;;;;8.63;5.47;;;;;;;21.90;69.20;93799.13;5122810;28;20028;-76
2022/08/07 04:40:55;;;;;;;6.68;5.53;;;;;;;21.92;68.85;93803.00;5122751;28;20214;-76
2022/08/07 04:43:27;;;;;;;10.77;5.75;;;;;;;21.99;68.21;93805.72;5124903;28;20022;-76
2022/08/07 04:46:10;;;;;;;;;;;;;;;22.07;66.00;93808.44;5127106;28;20026;-76
2022/08/07 04:48:50;;;;;;;9.10;5.28;;;;;;;22.06;65.15;93815.03;5126340;28;19904;-76
2022/08/07 04:51:27;;;;;;;7.97;5.60;;;;;;;22.08;64.93;93815.41;5126429;28;20031;-76
2022/08/07 04:54:15;;;;;;;7.53;5.32;;;;;;;22.08;63.58;93816.19;5126295;28;20092;-76
2022/08/07 04:57:07;;;;;;;6.22;4.78;;;;;;;22.08;64.53;93813.47;5126173;28;20069;-76
2022/08/07 04:59:44;;;;;;;6.38;5.28;;;;;;;22.18;64.90;93811.94;5126219;28;20088;-76
2022/08/07 05:02:19;;;;;;;6.88;5.38;;;;;;;22.20;63.74;93815.03;5126058;28;20068;-76
2022/08/07 05:04:55;;;;;;;10.57;5.50;;;;;;;22.26;63.81;93823.59;5126119;28;20324;-76
2022/08/07 05:07:50;;;;;;;8.77;5.50;;;;;;;22.41;62.45;93819.72;5126128;27;20015;-76
2022/08/07 05:10:28;;;;;;;8.23;5.65;;;;;;;22.47;60.86;93829.03;5120941;28;20059;-76
2022/08/07 05:13:03;;;;;;;7.60;5.40;;;;;;;22.60;61.21;93834.81;5125918;28;20202;-76
2022/08/07 05:15:40;;;;;;;9.93;4.95;;;;;;;22.77;61.06;93844.09;5125816;28;20027;-76
2022/08/07 05:18:11;;;;;;;8.65;5.60;;;;;;;22.86;60.74;93841.78;5125670;28;20039;-76
2022/08/07 05:20:40;;;;;;;11.07;5.18;;;;;;;22.95;60.09;93839.41;5125731;28;20026;-76
2022/08/07 05:23:19;;;;;;;13.52;5.90;;;;;;;22.89;61.69;93849.13;5125548;28;20031;-76
2022/08/07 05:25:45;;;;;;;11.07;6.90;;;;;;;22.94;61.16;93840.59;5125651;27;20027;-76
2022/08/07 05:28:13;;;;;;;13.45;6.22;;;;;;;23.02;61.49;93835.94;5125490;28;20170;-76
2022/08/07 05:30:40;;;;;;;12.85;5.78;;;;;;;23.15;61.52;93847.16;5125626;28;20036;-76
2022/08/07 05:33:08;;;;;;;13.02;6.30;;;;;;;23.25;60.28;93851.00;5125457;28;20020;-76
2022/08/07 05:35:35;;;;;;;10.43;6.07;;;;;;;23.31;60.73;93847.47;5125444;28;20047;-76
2022/08/07 05:38:01;;;;;;;10.40;5.72;;;;;;;23.37;61.05;93848.63;5125318;28;20086;-76
2022/08/07 05:40:28;;;;;;;8.57;5.82;;;;;;;23.52;59.92;93845.84;5125191;28;20020;-76
2022/08/07 05:42:54;;;;;;;7.53;5.60;;;;;;;23.60;59.19;93839.19;5125386;28;20064;-76
2022/08/07 05:45:20;;;;;;;6.63;5.57;;;;;;;23.69;58.46;93850.44;5125238;28;20047;-76
2022/08/07 05:47:46;;;;;;;9.68;6.45;;;;;;;23.78;58.33;93848.06;5125140;28;20015;-76
2022/08/07 05:50:12;;;;;;;8.20;6.03;;;;;;;23.89;58.40;93855.38;5124966;28;20023;-76
2022/08/07 05:52:37;;;;;;;7.60;5.68;;;;;;;23.99;57.63;93870.88;5125126;28;20038;-76
2022/08/07 05:55:03;;;;;;;7.75;5.22;;;;;;;24.09;57.65;93875.47;5124315;27;20203;-76
2022/08/07 05:57:30;;;;;;;11.77;6.57;;;;;;;24.27;58.21;93878.09;5124871;28;20219;-76
2022/08/07 05:59:57;;;;;;;8.60;5.70;;;;;;;24.43;57.91;93885.75;5125147;28;20023;-76
2022/08/07 06:02:25;;;;;;;11.15;5.57;;;;;;;24.51;56.89;93889.25;5124799;28;20019;-76
2022/08/07 06:04:55;;;;;;;9.13;5.88;;;;;;;24.60;55.96;93887.59;5125034;28;20230;-76
2022/08/07 06:07:22;;;;;;;7.03;5.15;;;;;;;24.76;55.48;93889.03;5124935;28;20308;-76
2022/08/07 06:09:47;;;;;;;7.10;4.78;;;;;;;24.82;54.92;93890.13;5124699;28;20209;-76
2022/08/07 06:12:14;;;;;;;11.23;5.05;;;;;;;24.88;54.54;93888.53;5124504;28;20100;-76
2022/08/07 06:14:40;;;;;;;11.07;5.28;;;;;;;24.96;54.49;93887.28;5124674;28;20050;-76
2022/08/07 06:17:07;;;;;;;12.88;5.47;;;;;;;25.00;54.67;93889.97;5124417;28;20287;-76
2022/08/07 06:19:33;;;;;;;6.68;5.30;;;;;;;24.96;54.59;93890.00;5124678;28;20087;-76
2022/08/07 06:22:00;;;;;;;8.38;5.65;;;;;;;24.97;54.80;93891.56;5124523;28;20020;-76
2022/08/07 06:24:26;;;;;;;9.75;5.38;;;;;;;25.00;54.75;93889.97;5124606;28;20027;-76
2022/08/07 06:26:51;;;;;;;10.68;5.38;;;;;;;25.06;53.58;93893.03;5124330;27;20079;-76
2022/08/07 06:29:17;;;;;;;11.45;5.78;;;;;;;25.13;53.43;93896.44;5124368;28;20038;-76
2022/08/07 06:31:42;;;;;;;11.10;5.85;;;;;;;25.09;53.05;93890.25;5124168;27;20026;-76
2022/08/07 06:34:07;;;;;;;11.05;5.60;;;;;;;25.11;53.31;93895.31;5124194;28;20019;-76
2022/08/07 06:36:33;;;;;;;9.70;6.18;;;;;;;25.10;52.25;93896.50;5124305;28;20223;-76
2022/08/07 06:38:58;;;;;;;9.05;6.00;;;;;;;25.06;52.68;93895.78;5124228;28;20012;-76
2022/08/07 06:41:42;;;;;;;7.82;5.13;;;;;;;25.02;50.91;93880.22;5124207;28;20031;-76
2022/08/07 06:44:10;;;;;;;10.30;5.05;;;;;;;25.10;49.75;93889.09;5124293;28;20023;-76
2022/08/07 06:46:36;;;;;;;9.48;5.47;;;;;;;25.19;48.64;93888.59;5124048;28;20024;-76
2022/08/07 06:49:03;;;;;;;9.02;4.60;;;;;;;25.25;48.37;93886.25;5124025;28;20054;-76
2022/08/07 06:51:32;;;;;;;12.88;5.93;;;;;;;25.35;48.87;93896.28;5123978;28;20232;-77
2022/08/07 06:54:02;;;;;;;10.98;5.65;;;;;;;25.43;48.09;93890.31;5123867;28;20032;-77
2022/08/07 06:56:42;;;;;;;10.95;6.05;;;;;;;25.38;47.81;93887.25;5123972;28;20042;-76
2022/08/07 06:59:14;;;;;;;9.85;5.82;;;;;;;25.53;48.79;93890.63;5123894;27;20068;-76
2022/08/07 07:01:41;;;;;;;7.85;5.80;;;;;;;25.62;48.80;93888.94;5123858;28;20103;-76
2022/08/07 07:04:08;;;;;;;11.57;5.82;;;;;;;25.71;48.28;93882.22;5123620;28;20027;-76
2022/08/07 07:06:33;;;;;;;16.02;6.20;;;;;;;25.77;48.24;93892.25;5123691;28;20019;-76
2022/08/07 07:09:18;;;;;;;7.15;5.30;;;;;;;25.87;48.66;93898.78;5123672;28;20371;-76
2022/08/07 07:11:52;;;;;;;8.40;5.20;;;;;;;25.93;47.72;93894.44;5123586;27;20019;-76
2022/08/07 07:14:21;;;;;;;11.98;5.82;;;;;;;25.85;47.94;93898.41;5123681;28;20350;-76
2022/08/07 07:16:49;;;;;;;9.15;5.80;;;;;;;25.88;47.98;93897.56;5123104;28;20031;-76
2022/08/07 07:19:17;;;;;;;11.98;6.32;;;;;;;25.97;47.63;93894.38;5123615;28;20043;-76
2022/08/07 07:21:44;;;;;;;13.68;6.10;;;;;;;25.93;47.94;93894.44;5123653;28;20312;-76
2022/08/07 07:24:10;;;;;;;10.90;6.38;;;;;;;25.97;48.25;93897.09;5123544;28;20023;-76
2022/08/07 07:26:38;;;;;;;10.80;6.18;;;;;;;25.97;48.12;93886.97;5123365;28;20068;-76
2022/08/07 07:29:16;;;;;;;9.02;6.65;;;;;;;26.01;47.83;93893.16;5123363;28;20036;-76
2022/08/07 07:31:48;;;;;;;8.40;6.00;;;;;;;26.09;46.98;93893.81;5123342;28;20226;-76
2022/08/07 07:34:21;;;;;;;9.73;5.75;;;;;;;26.05;46.57;93889.59;5123181;28;20055;-76
2022/08/07 07:36:48;;;;;;;13.75;6.38;;;;;;;26.10;47.38;93892.63;5123373;28;20019;-76
2022/08/07 07:39:15;;;;;;;11.02;6.50;;;;;;;26.16;47.04;93904.63;5123340;28;20345;-76
2022/08/07 07:41:46;;;;;;;10.40;5.68;;;;;;;26.17;46.06;93900.72;5123217;28;20132;-76
2022/08/07 07:44:15;;;;;;;8.95;6.15;;;;;;;26.18;46.28;93902.28;5123187;28;20064;-76
2022/08/07 07:46:41;;;;;;;9.23;6.47;;;;;;;26.13;45.84;93900.00;5123252;28;20032;-76
2022/08/07 07:49:09;;;;;;;13.10;6.68;;;;;;;26.10;46.13;93903.56;5123111;28;20028;-76
2022/08/07 07:51:36;;;;;;;8.38;6.43;;;;;;;26.22;46.16;93908.47;5123175;28;20050;-76
2022/08/07 07:54:03;;;;;;;11.02;5.50;;;;;;;26.36;45.24;93901.25;5123122;28;20023;-76
2022/08/07 07:56:30;;;;;;;9.38;5.90;;;;;;;26.33;44.13;93907.53;5123200;28;20023;-76
2022/08/07 07:59:00;;;;;;;7.72;6.00;;;;;;;26.33;45.36;93911.03;5123377;28;20023;-76
2022/08/07 08:01:29;;;;;;;9.48;6.30;;;;;;;26.45;45.42;93906.94;5123128;28;20217;-76
2022/08/07 08:03:56;;;;;;;17.48;9.52;;;;;;;26.60;44.57;93916.53;5123071;28;20023;-76
2022/08/07 08:06:24;;;;;;;12.23;8.75;;;;;;;26.67;44.07;93912.13;5122974;28;20230;-76
2022/08/07 08:08:52;;;;;;;11.90;8.77;;;;;;;26.52;42.76;93923.25;5122927;28;20026;-76
2022/08/07 08:11:19;;;;;;;13.15;9.27;;;;;;;26.50;43.53;93908.44;5122831;28;20090;-76
2022/08/07 08:13:47;;;;;;;10.80;8.57;;;;;;;26.53;43.46;93919.31;5122604;28;20279;-76
2022/08/07 08:16:17;;;;;;;15.82;7.90;;;;;;;26.57;43.10;93920.06;5122842;28;20034;-76
2022/08/07 08:18:44;;;;;;;11.07;7.70;;;;;;;26.69;41.65;93932.38;5125722;28;20031;-76
2022/08/07 08:27:04;;;;;;;10.70;7.40;;;;;;;26.75;41.78;93925.25;5126864;28;20031;-76
2022/08/07 08:29:38;;;;;;;13.15;7.78;;;;;;;26.70;41.85;93928.47;5126635;28;20020;-76
2022/08/07 08:32:04;;;;;;;8.73;6.85;;;;;;;26.67;42.80;93917.59;5126639;28;20198;-76
2022/08/07 08:34:32;;;;;;;8.82;6.50;;;;;;;26.59;41.89;93917.69;5126865;28;20212;-76
2022/08/07 08:37:01;;;;;;;10.57;6.07;;;;;;;26.77;42.11;93922.13;5126857;28;20035;-76
2022/08/07 08:39:27;;;;;;;9.32;6.50;;;;;;;26.93;42.82;93924.22;5126454;28;20061;-76
2022/08/07 08:45:24;;;;;;;7.90;5.97;;;;;;;27.08;40.64;93927.47;5126420;28;20060;-76
2022/08/07 08:47:59;;;;;;;9.32;6.20;;;;;;;27.15;40.69;93927.31;5126325;28;20219;-76
2022/08/07 08:50:41;;;;;;;10.88;6.50;;;;;;;27.09;41.66;93929.00;5126225;28;20069;-76
2022/08/07 08:53:29;;;;;;;10.40;7.10;;;;;;;27.24;41.04;93933.06;5125951;27;20035;-76
2022/08/07 08:56:19;;;;;;;12.30;6.63;;;;;;;27.37;41.10;93931.25;5126106;28;20019;-76
2022/08/07 08:59:08;;;;;;;8.15;5.93;;;;;;;27.44;40.87;93927.63;5125973;28;20023;-76
2022/08/07 09:01:43;;;;;;;9.02;6.25;;;;;;;27.51;41.13;93927.47;5126141;28;20023;-76
2022/08/07 09:04:30;;;;;;;10.30;6.93;;;;;;;27.61;40.78;93928.47;5125920;28;20035;-76
2022/08/07 09:07:10;;;;;;;8.27;6.13;;;;;;;27.85;40.56;93925.69;5125917;28;20016;-76
2022/08/07 09:10:12;;;;;;;9.43;6.28;;;;;;;28.08;40.28;93917.38;5126000;28;20040;-76
2022/08/07 09:12:50;;;;;;;10.55;5.97;;;;;;;28.28;39.80;93922.06;5125735;28;20225;-76
2022/08/07 09:15:40;;;;;;;12.45;6.72;;;;;;;28.12;38.09;93918.06;5125702;28;20057;-76
2022/08/07 09:18:22;;;;;;;10.25;6.43;;;;;;;28.06;39.24;93930.72;5125729;28;20050;-76
2022/08/07 09:21:10;;;;;;;7.53;5.75;;;;;;;28.04;38.10;93922.16;5125755;28;20133;-76
2022/08/07 09:23:51;;;;;;;7.13;5.78;;;;;;;27.75;38.55;93911.75;5125661;28;20042;-76
2022/08/07 09:26:54;;;;;;;12.35;6.13;;;;;;;27.85;39.53;93914.72;5125604;28;20144;-76
2022/08/07 09:29:32;;;;;;;8.23;5.93;;;;;;;27.95;39.55;93903.56;5124443;27;20019;-76
2022/08/07 09:32:13;;;;;;;8.88;5.68;;;;;;;28.12;39.50;93909.09;5125454;28;20321;-77
2022/08/07 09:35:11;;;;;;;11.20;6.15;;;;;;;28.21;39.10;93895.56;5125502;28;20028;-77
2022/08/07 09:37:50;;;;;;;8.52;5.75;;;;;;;28.26;38.76;93895.06;5117829;28;20024;-76
2022/08/07 09:40:25;;;;;;;12.32;5.43;;;;;;;28.18;38.59;93893.69;5125358;28;20308;-76
2022/08/07 09:43:16;;;;;;;10.98;5.72;;;;;;;28.12;38.82;93892.66;5125163;27;20282;-76
2022/08/07 09:45:48;;;;;;;9.45;6.15;;;;;;;28.06;38.86;93886.88;5125336;28;20023;-76
2022/08/07 09:48:33;;;;;;;8.98;5.70;;;;;;;28.20;38.65;93892.06;5125021;28;20020;-76
2022/08/07 09:51:24;;;;;;;7.55;5.70;;;;;;;28.33;37.53;93891.38;5125219;28;20024;-76
2022/08/07 09:53:56;;;;;;;6.95;5.05;;;;;;;28.43;36.74;93884.88;5115010;28;20035;-76
2022/08/07 09:56:40;;;;;;;6.80;5.63;;;;;;;28.56;37.22;93888.53;5125213;28;20027;-76
2022/08/07 09:59:45;;;;;;;8.02;5.47;;;;;;;28.62;36.59;93883.31;5124830;28;20064;-76
2022/08/07 10:02:36;;;;;;;6.45;4.90;;;;;;;28.71;37.16;93880.72;5124882;28;20028;-76
2022/08/07 10:05:15;;;;;;;7.60;5.43;;;;;;;28.61;37.13;93876.28;5116434;28;20223;-76
2022/08/07 10:08:02;;;;;;;11.73;5.60;;;;;;;28.63;36.95;93878.59;5124856;28;20233;-76
2022/08/07 10:10:46;;;;;;;9.52;5.22;;;;;;;28.56;36.95;93869.34;5124824;28;20047;-76
2022/08/07 10:13:39;;;;;;;8.77;5.38;;;;;;;28.51;37.26;93869.84;5124526;28;20023;-76
2022/08/07 10:16:41;;;;;;;7.25;5.00;;;;;;;28.48;37.06;93867.19;5124825;28;20032;-76
2022/08/07 10:19:13;;;;;;;7.63;4.88;;;;;;;28.42;37.04;93870.41;5124564;28;20027;-76
2022/08/07 10:21:56;;;;;;;10.20;4.57;;;;;;;28.51;36.14;93856.13;5124487;28;20027;-76
2022/08/07 10:24:44;;;;;;;7.03;5.00;;;;;;;28.50;36.00;93854.59;5124190;28;20099;-76
2022/08/07 10:27:43;;;;;;;6.43;4.70;;;;;;;28.59;38.10;93857.50;5124369;28;20031;-76
2022/08/07 10:30:12;;;;;;;6.13;4.57;;;;;;;28.67;36.01;93851.84;5124397;28;20166;-76
2022/08/07 10:33:01;;;;;;;5.93;4.45;;;;;;;28.90;35.70;93854.41;5124342;28;20043;-76
2022/08/07 10:35:27;;;;;;;6.30;4.68;;;;;;;29.15;35.41;93861.25;5124259;28;20068;-76
2022/08/07 10:38:10;;;;;;;10.93;4.85;;;;;;;29.19;35.44;93853.69;5124307;28;20039;-76
2022/08/07 10:40:46;;;;;;;10.38;4.90;;;;;;;29.26;35.82;93864.47;5124024;28;20027;-76
2022/08/07 10:43:17;;;;;;;9.35;5.10;;;;;;;29.30;34.65;93862.41;5124164;28;20024;-76
2022/08/07 10:45:48;;;;;;;8.43;5.63;;;;;;;29.23;35.03;93868.09;5124108;28;20031;-76
2022/08/07 10:48:19;;;;;;;9.80;5.82;;;;;;;29.16;35.67;93871.00;5124106;28;20038;-76
2022/08/07 10:50:50;;;;;;;5.82;4.68;;;;;;;29.04;35.04;93868.94;5123938;28;20030;-76
2022/08/07 10:53:29;;;;;;;10.03;5.80;;;;;;;29.11;35.55;93863.31;5123933;27;20031;-76
2022/08/07 10:55:55;;;;;;;10.10;4.85;;;;;;;29.21;35.91;93867.75;5123767;28;20086;-76
2022/08/07 10:58:43;;;;;;;7.57;4.60;;;;;;;29.21;34.33;93865.00;5123800;28;20032;-76
2022/08/07 11:01:35;;;;;;;5.63;4.32;;;;;;;29.17;34.96;93856.88;5123840;28;20019;-76
2022/08/07 11:04:04;;;;;;;6.70;4.72;;;;;;;29.27;34.77;93860.53;5123710;28;20024;-76
2022/08/07 11:06:48;;;;;;;9.35;5.03;;;;;;;29.38;34.83;93860.22;5123726;27;20023;-76
2022/08/07 11:09:21;;;;;;;7.93;5.45;;;;;;;29.47;35.07;93857.63;5123715;28;20064;-76
2022/08/07 11:11:57;;;;;;;6.72;4.07;;;;;;;29.36;34.38;93868.91;5123568;28;20051;-76
2022/08/07 11:14:29;;;;;;;5.93;4.32;;;;;;;29.36;34.67;93868.91;5123719;28;20033;-76
2022/08/07 11:17:00;;;;;;;9.02;5.60;;;;;;;29.36;35.41;93868.91;5123294;27;20047;-76
2022/08/07 11:19:37;;;;;;;7.32;4.88;;;;;;;29.29;35.68;93876.53;5123661;28;20019;-77
2022/08/07 11:22:20;;;;;;;7.28;5.57;;;;;;;29.11;36.24;93879.78;5123636;28;20020;-77
2022/08/07 11:24:49;;;;;;;9.98;5.75;;;;;;;28.94;37.18;93862.53;5123259;28;20091;-76
2022/08/07 11:27:32;;;;;;;7.38;5.50;;;;;;;28.68;36.84;93859.66;5123489;28;20023;-77
2022/08/07 11:30:03;;;;;;;11.77;6.00;;;;;;;28.66;36.90;93859.31;5123413;28;20068;-76
2022/08/07 11:32:44;;;;;;;8.20;5.45;;;;;;;28.71;37.59;93849.81;5123372;28;20263;-76
2022/08/07 11:35:17;;;;;;;9.48;5.00;;;;;;;28.75;36.92;93853.97;5123434;28;20084;-76
2022/08/07 11:38:02;;;;;;;9.32;5.90;;;;;;;28.80;38.08;93849.94;5123080;28;20117;-76
2022/08/07 11:40:50;;;;;;;7.80;5.38;;;;;;;29.04;37.84;93853.25;5123324;28;20041;-76
2022/08/07 11:43:26;;;;;;;6.93;5.28;;;;;;;29.17;36.61;93850.63;5123049;28;20027;-77
2022/08/07 11:46:10;;;;;;;9.05;5.95;;;;;;;29.14;37.82;93857.72;5123150;28;20023;-77
2022/08/07 11:48:58;;;;;;;7.07;5.55;;;;;;;29.16;37.21;93857.28;5123289;28;20023;-77
2022/08/07 11:51:38;;;;;;;7.57;5.18;;;;;;;29.35;34.85;93866.56;5112243;28;20230;-76
2022/08/07 11:54:28;;;;;;;6.95;4.97;;;;;;;29.44;34.44;93874.19;5126898;28;20020;-76
2022/08/07 11:57:20;;;;;;;7.53;5.80;;;;;;;29.48;35.71;93881.13;5127342;28;20031;-77
2022/08/07 12:00:09;;;;;;;9.68;5.38;;;;;;;29.53;36.57;93883.31;5127250;28;20315;-77
2022/08/07 12:02:55;;;;;;;8.73;5.72;;;;;;;29.43;36.57;93884.41;5127599;28;20023;-77